Time;durP1;ratioP1;P1;durP2;ratioP2;P2;SDS_P1;SDS_P2;PMS_P1;PMS_P2;Temp;Humidity;BMP_temperature;BMP_pressure;BME280_temperature;BME280_humidity;BME280_pressure;Samples;Min_cycle;Max_cycle;Signal;HPM_P1;HPM_P2
2022/09/28 00:01:15;;;;;;;8.70;6.18;;;;;;;7.73;100.00;99401.19;5019599;28;20290;-45
2022/09/28 00:03:40;;;;;;;7.93;6.00;;;;;;;7.73;100.00;99401.19;5026444;28;20191;-43
2022/09/28 00:06:10;;;;;;;6.57;5.97;;;;;;;7.75;100.00;99397.50;5024273;28;20172;-43
2022/09/28 00:08:35;;;;;;;6.93;6.22;;;;;;;7.74;100.00;99401.13;5023556;28;20180;-46
2022/09/28 00:11:03;;;;;;;6.40;5.80;;;;;;;7.73;100.00;99395.88;5024896;28;20579;-44
2022/09/28 00:13:30;;;;;;;8.45;6.78;;;;;;;7.72;100.00;99402.13;5021605;28;20190;-45
2022/09/28 00:16:00;;;;;;;7.65;5.97;;;;;;;7.73;100.00;99398.53;5027922;28;20176;-43
2022/09/28 00:18:25;;;;;;;8.70;7.63;;;;;;;7.61;100.00;99398.19;5026816;28;20172;-43
2022/09/28 00:21:18;;;;;;;8.35;7.55;;;;;;;7.58;100.00;99405.47;5030662;28;20219;-43
2022/09/28 00:26:30;;;;;;;11.20;8.77;;;;;;;7.59;100.00;99400.06;5015237;28;20177;-43
2022/09/28 00:28:58;;;;;;;10.60;9.60;;;;;;;7.64;100.00;99394.53;5017230;28;20207;-44
2022/09/28 00:31:25;;;;;;;10.68;9.48;;;;;;;7.61;100.00;99386.69;5027230;28;20224;-44
2022/09/28 00:33:51;;;;;;;12.25;10.27;;;;;;;7.58;100.00;99397.47;5025690;28;20184;-44
2022/09/28 00:36:18;;;;;;;12.80;10.10;;;;;;;7.64;100.00;99384.72;5026598;28;20188;-44
2022/09/28 00:38:43;;;;;;;15.65;11.15;;;;;;;7.56;100.00;99383.38;5012809;28;20204;-46
2022/09/28 00:41:12;;;;;;;12.32;11.13;;;;;;;7.56;100.00;99388.69;5018289;28;20286;-46
2022/09/28 00:43:38;;;;;;;12.27;11.18;;;;;;;7.64;100.00;99386.53;5029301;28;20775;-43
2022/09/28 00:46:13;;;;;;;14.32;12.75;;;;;;;7.64;100.00;99394.53;5022561;28;20184;-42
2022/09/28 00:48:46;;;;;;;18.60;12.70;;;;;;;7.66;100.00;99400.63;5020402;28;20650;-44
2022/09/28 00:51:12;;;;;;;14.75;13.05;;;;;;;7.62;100.00;99391.91;5019732;28;20195;-43
2022/09/28 00:53:42;;;;;;;18.45;13.95;;;;;;;7.63;100.00;99390.09;5032497;28;20208;-44
2022/09/28 00:56:11;;;;;;;18.98;14.55;;;;;;;7.64;100.00;99394.53;5027580;28;20267;-45
2022/09/28 00:58:43;;;;;;;16.88;15.25;;;;;;;7.63;100.00;99390.09;5020058;28;20197;-44
2022/09/28 01:01:09;;;;;;;15.85;14.23;;;;;;;7.70;100.00;99386.22;5027126;28;20218;-44
2022/09/28 01:03:36;;;;;;;18.38;14.93;;;;;;;7.71;100.00;99387.09;5030472;28;20172;-47
2022/09/28 01:06:03;;;;;;;18.73;16.30;;;;;;;7.73;100.00;99386.06;5030184;28;20211;-46
2022/09/28 01:08:31;;;;;;;16.30;14.60;;;;;;;7.65;100.00;99382.91;5027371;28;20181;-46
2022/09/28 01:10:58;;;;;;;17.55;15.77;;;;;;;7.64;100.00;99386.53;5029621;28;20215;-44
2022/09/28 01:13:25;;;;;;;17.95;15.82;;;;;;;7.66;100.00;99384.66;5030775;28;20164;-45
2022/09/28 01:15:57;;;;;;;16.30;14.55;;;;;;;7.67;100.00;99381.03;5025755;28;20187;-42
2022/09/28 01:18:52;;;;;;;16.42;14.43;;;;;;;7.68;100.00;99377.44;5016469;28;20264;-43
2022/09/28 01:21:22;;;;;;;17.52;15.77;;;;;;;7.70;100.00;99385.38;4990909;28;20232;-44
2022/09/28 01:23:48;;;;;;;17.88;16.13;;;;;;;7.73;100.00;99375.41;5021709;28;20239;-43
2022/09/28 01:26:29;;;;;;;17.30;15.48;;;;;;;7.75;100.00;99394.00;5028032;28;20176;-44
2022/09/28 01:29:09;;;;;;;18.73;16.17;;;;;;;7.81;100.00;99383.88;5027391;28;20576;-43
2022/09/28 01:31:40;;;;;;;19.13;16.65;;;;;;;7.75;100.00;99384.19;5026536;28;20199;-46
2022/09/28 01:34:17;;;;;;;21.83;17.63;;;;;;;7.75;100.00;99384.19;5018590;28;20189;-44
2022/09/28 01:36:49;;;;;;;20.85;17.73;;;;;;;7.71;100.00;99377.28;5027243;28;20586;-43
2022/09/28 01:39:25;;;;;;;19.58;17.48;;;;;;;7.75;100.00;99378.84;5020847;28;20180;-44
2022/09/28 01:41:54;;;;;;;20.20;17.73;;;;;;;7.72;100.00;99389.69;5017672;28;20253;-44
2022/09/28 01:44:23;;;;;;;21.65;17.85;;;;;;;7.73;100.00;99385.19;5027067;28;20181;-45
2022/09/28 01:46:49;;;;;;;18.23;15.88;;;;;;;7.81;100.00;99383.88;5018105;28;20239;-42
2022/09/28 01:49:29;;;;;;;25.05;20.00;;;;;;;7.77;100.00;99397.44;5026805;28;20199;-44
2022/09/28 01:52:01;;;;;;;20.42;17.65;;;;;;;7.78;100.00;99400.03;5019832;28;20164;-46
2022/09/28 01:54:51;;;;;;;22.00;19.63;;;;;;;7.74;100.00;99387.81;5021200;28;20217;-42
2022/09/28 01:57:34;;;;;;;28.55;19.42;;;;;;;7.69;100.00;99388.97;5015845;28;20169;-45
2022/09/28 02:00:05;;;;;;;19.92;17.73;;;;;;;7.73;100.00;99385.19;5017066;28;20752;-46
2022/09/28 02:02:53;;;;;;;22.52;19.10;;;;;;;7.70;100.00;99383.56;5022398;28;20180;-46
2022/09/28 02:05:30;;;;;;;24.48;18.92;;;;;;;7.74;100.00;99390.47;5021679;28;20195;-45
2022/09/28 02:08:08;;;;;;;25.23;20.60;;;;;;;7.68;100.00;99389.91;5013341;28;20165;-44
2022/09/28 02:11:04;;;;;;;24.65;20.45;;;;;;;7.61;100.00;99379.53;5018250;28;20283;-42
2022/09/28 02:13:39;;;;;;;24.85;19.65;;;;;;;7.66;100.00;99378.47;5011414;28;20176;-44
2022/09/28 02:16:23;;;;;;;27.60;20.17;;;;;;;7.64;100.00;99382.03;5038342;28;20199;-43
2022/09/28 02:18:50;;;;;;;25.08;20.08;;;;;;;7.65;100.00;99388.22;5025951;28;20189;-44
2022/09/28 02:21:52;;;;;;;26.90;21.10;;;;;;;7.58;100.00;99386.81;5014812;28;20726;-42
2022/09/28 02:24:26;;;;;;;34.10;22.10;;;;;;;7.61;100.00;99381.34;4960679;28;20200;-42
2022/09/28 02:26:56;;;;;;;29.73;21.33;;;;;;;7.67;100.00;99383.69;5027530;28;20210;-43
2022/09/28 02:29:23;;;;;;;27.95;20.73;;;;;;;7.72;100.00;99388.78;5019177;28;20196;-45
2022/09/28 02:31:50;;;;;;;26.13;20.00;;;;;;;7.74;100.00;99384.25;5018376;28;20180;-43
2022/09/28 02:34:15;;;;;;;28.77;22.63;;;;;;;7.71;100.00;99389.75;5028257;28;20549;-44
2022/09/28 02:36:43;;;;;;;27.08;21.15;;;;;;;7.64;100.00;99390.03;5020607;28;20175;-44
2022/09/28 02:39:17;;;;;;;24.35;20.35;;;;;;;7.64;100.00;99391.84;5028928;28;20184;-44
2022/09/28 02:41:46;;;;;;;25.55;19.98;;;;;;;7.70;100.00;99383.56;5012703;28;20243;-44
2022/09/28 02:44:33;;;;;;;28.30;21.45;;;;;;;7.74;100.00;99392.25;5024084;28;20184;-45
2022/09/28 02:47:08;;;;;;;28.42;21.50;;;;;;;7.74;100.00;99390.47;5017492;28;20176;-44
2022/09/28 02:49:50;;;;;;;26.85;20.60;;;;;;;7.77;100.00;99398.31;5029318;28;20219;-43
2022/09/28 02:52:43;;;;;;;25.40;20.60;;;;;;;7.80;100.00;99389.28;5030322;28;20538;-41
2022/09/28 02:55:16;;;;;;;29.50;21.33;;;;;;;7.75;100.00;99399.31;5029016;28;20183;-42
2022/09/28 02:58:05;;;;;;;32.03;21.20;;;;;;;7.74;100.00;99387.81;5022616;28;20606;-44
2022/09/28 03:00:38;;;;;;;31.95;22.27;;;;;;;7.71;100.00;99398.59;5010072;28;20703;-42
2022/09/28 03:03:16;;;;;;;33.00;23.02;;;;;;;7.67;100.00;99386.34;5010621;28;20206;-45
2022/09/28 03:05:51;;;;;;;31.65;22.08;;;;;;;7.69;100.00;99395.16;5000452;28;20215;-45
2022/09/28 03:08:25;;;;;;;31.77;22.65;;;;;;;7.67;100.00;99383.69;5019572;28;20207;-45
2022/09/28 03:10:57;;;;;;;34.30;23.08;;;;;;;7.64;100.00;99386.53;5011369;28;20208;-46
2022/09/28 03:13:25;;;;;;;32.83;23.55;;;;;;;7.56;100.00;99381.56;5007534;28;20199;-43
2022/09/28 03:15:50;;;;;;;31.05;22.90;;;;;;;7.68;100.00;99377.44;5019238;28;20627;-45
2022/09/28 03:18:16;;;;;;;34.95;23.92;;;;;;;7.58;100.00;99387.66;5013010;28;20235;-45
2022/09/28 03:20:42;;;;;;;34.83;23.05;;;;;;;7.64;100.00;99391.84;5012980;28;20204;-43
2022/09/28 03:23:09;;;;;;;40.40;24.02;;;;;;;7.63;100.00;99384.78;5023283;28;20648;-44
2022/09/28 03:25:34;;;;;;;35.83;24.05;;;;;;;7.61;100.00;99379.53;5010565;28;20202;-43
2022/09/28 03:28:00;;;;;;;30.35;21.60;;;;;;;7.65;100.00;99372.25;5012112;28;20180;-41
2022/09/28 03:30:26;;;;;;;34.75;24.17;;;;;;;7.68;100.00;99390.75;5025608;28;20544;-42
2022/09/28 03:32:59;;;;;;;37.05;22.85;;;;;;;7.63;100.00;99379.44;5023568;28;20278;-42
2022/09/28 03:35:27;;;;;;;37.40;23.23;;;;;;;7.55;100.00;99371.84;5028965;28;20170;-44
2022/09/28 03:37:55;;;;;;;34.55;23.95;;;;;;;7.59;100.00;99378.75;5023314;28;20258;-43
2022/09/28 03:40:20;;;;;;;36.03;24.17;;;;;;;7.60;100.00;99374.28;5021319;28;20592;-43
2022/09/28 03:42:46;;;;;;;33.90;22.85;;;;;;;7.68;100.00;99372.09;5025147;28;20176;-44
2022/09/28 03:45:11;;;;;;;35.45;22.67;;;;;;;7.59;100.00;99362.75;5014060;28;20180;-45
2022/09/28 03:47:37;;;;;;;35.60;23.08;;;;;;;7.59;100.00;99370.75;5026474;28;20172;-45
2022/09/28 03:50:03;;;;;;;33.15;23.60;;;;;;;7.70;100.00;99367.56;5014917;28;20698;-42
2022/09/28 03:52:28;;;;;;;33.97;24.15;;;;;;;7.71;100.00;99369.28;5013517;28;20224;-46
2022/09/28 03:54:54;;;;;;;34.60;25.65;;;;;;;7.62;100.00;99370.59;5018571;28;20172;-44
2022/09/28 03:57:19;;;;;;;36.92;24.40;;;;;;;7.66;100.00;99370.47;5028229;28;20670;-42
2022/09/28 03:59:45;;;;;;;33.92;24.23;;;;;;;7.62;100.00;99365.25;5019425;28;20299;-43
2022/09/28 04:02:11;;;;;;;30.63;22.33;;;;;;;7.68;100.00;99366.78;5010207;28;20296;-42
2022/09/28 04:04:36;;;;;;;36.00;24.38;;;;;;;7.67;100.00;99375.69;5036149;28;20188;-44
2022/09/28 04:07:02;;;;;;;34.13;23.77;;;;;;;7.54;100.00;99364.81;5021928;28;20188;-43
2022/09/28 04:09:28;;;;;;;31.65;22.83;;;;;;;7.67;100.00;99374.84;5024920;28;20239;-42
2022/09/28 04:11:53;;;;;;;32.35;23.27;;;;;;;7.67;100.00;99373.03;5017613;28;20215;-43
2022/09/28 04:14:19;;;;;;;30.63;22.30;;;;;;;7.62;100.00;99372.41;5012252;28;20199;-43
2022/09/28 04:16:46;;;;;;;32.65;24.40;;;;;;;7.57;100.00;99366.44;5020055;28;20214;-43
2022/09/28 04:19:14;;;;;;;31.70;22.85;;;;;;;7.55;100.00;99371.84;5028214;28;20184;-42
2022/09/28 04:21:54;;;;;;;29.98;22.73;;;;;;;7.51;100.00;99366.75;5025861;28;20306;-43
2022/09/28 04:24:20;;;;;;;30.15;22.02;;;;;;;7.52;100.00;99360.47;5014717;28;20658;-42
2022/09/28 04:26:46;;;;;;;30.33;21.42;;;;;;;7.51;100.00;99367.59;5018099;28;20177;-43
2022/09/28 04:29:15;;;;;;;33.00;21.42;;;;;;;7.40;100.00;99362.78;5016253;28;20699;-44
2022/09/28 04:31:48;;;;;;;25.35;21.23;;;;;;;7.39;100.00;99374.41;5034592;28;20336;-41
2022/09/28 04:34:16;;;;;;;28.52;21.10;;;;;;;7.40;100.00;99365.47;5032932;28;20835;-44
2022/09/28 04:36:43;;;;;;;30.58;22.70;;;;;;;7.46;100.00;99366.13;5014258;28;20187;-42
2022/09/28 04:39:13;;;;;;;30.20;22.35;;;;;;;7.51;100.00;99366.75;5021486;28;20567;-43
2022/09/28 04:41:40;;;;;;;25.95;20.92;;;;;;;7.50;100.00;99360.56;5023031;28;20215;-43
2022/09/28 04:44:06;;;;;;;29.13;21.80;;;;;;;7.46;100.00;99368.78;5024932;28;20215;-46
2022/09/28 04:46:32;;;;;;;26.95;21.77;;;;;;;7.40;100.00;99370.78;5023377;28;20205;-45
2022/09/28 04:49:21;;;;;;;24.65;19.83;;;;;;;7.50;100.00;99367.66;5009658;28;20199;-43
2022/09/28 04:51:51;;;;;;;24.83;20.58;;;;;;;7.50;100.00;99365.88;5028462;28;20177;-44
2022/09/28 04:54:17;;;;;;;24.08;20.20;;;;;;;7.55;100.00;99363.84;5036219;28;20181;-43
2022/09/28 04:56:42;;;;;;;25.42;20.45;;;;;;;7.49;100.00;99355.28;5031543;28;20238;-45
2022/09/28 04:59:08;;;;;;;27.55;20.30;;;;;;;7.38;100.00;99356.69;5014564;28;20553;-44
2022/09/28 05:01:35;;;;;;;27.40;20.70;;;;;;;7.50;100.00;99367.66;5013283;28;20207;-41
2022/09/28 05:04:19;;;;;;;25.27;19.73;;;;;;;7.43;100.00;99360.00;5027692;28;20270;-46
2022/09/28 05:06:53;;;;;;;21.38;18.67;;;;;;;7.49;100.00;99356.16;5016348;28;20187;-44
2022/09/28 05:09:19;;;;;;;25.30;20.27;;;;;;;7.52;100.00;99372.00;5011375;28;20191;-44
2022/09/28 05:11:48;;;;;;;23.33;18.23;;;;;;;7.60;100.00;99353.81;5024187;28;20707;-45
2022/09/28 05:14:16;;;;;;;27.55;20.25;;;;;;;7.46;100.00;99358.97;5027316;28;20274;-45
2022/09/28 05:16:41;;;;;;;23.23;18.65;;;;;;;7.48;100.00;99358.88;5027723;28;20655;-45
2022/09/28 05:19:36;;;;;;;26.23;18.77;;;;;;;7.50;100.00;99365.88;4957934;28;20255;-45
2022/09/28 05:22:03;;;;;;;23.60;18.00;;;;;;;7.51;100.00;99353.41;5026694;28;20209;-41
2022/09/28 05:24:33;;;;;;;23.15;18.95;;;;;;;7.57;100.00;99361.97;5027013;28;20268;-43
2022/09/28 05:26:58;;;;;;;21.55;17.33;;;;;;;7.53;100.00;99359.53;5023288;28;20629;-43
2022/09/28 05:29:24;;;;;;;20.63;16.63;;;;;;;7.30;100.00;99352.66;5011004;28;20543;-43
2022/09/28 05:32:07;;;;;;;21.30;16.38;;;;;;;7.45;100.00;99349.25;5016131;28;20191;-44
2022/09/28 05:34:43;;;;;;;20.00;16.33;;;;;;;7.41;100.00;99358.31;5024145;28;20180;-42
2022/09/28 05:37:13;;;;;;;22.13;17.45;;;;;;;7.42;100.00;99358.25;5023484;28;20204;-42
2022/09/28 05:39:39;;;;;;;19.95;16.67;;;;;;;7.35;100.00;99351.50;5026965;28;20203;-44
2022/09/28 05:42:06;;;;;;;18.73;16.55;;;;;;;7.48;100.00;99357.09;5020396;28;20312;-45
2022/09/28 05:44:32;;;;;;;21.00;17.85;;;;;;;7.42;100.00;99360.06;5027814;28;20191;-46
2022/09/28 05:46:58;;;;;;;20.25;17.23;;;;;;;7.45;100.00;99359.03;5022570;28;20184;-42
2022/09/28 05:49:23;;;;;;;23.13;18.08;;;;;;;7.39;100.00;99354.88;5009994;28;20222;-42
2022/09/28 05:51:49;;;;;;;21.15;17.83;;;;;;;7.31;100.00;99357.91;5011406;28;20710;-45
2022/09/28 05:54:14;;;;;;;20.23;17.17;;;;;;;7.37;100.00;99357.63;5019453;28;20212;-42
2022/09/28 05:56:44;;;;;;;22.92;17.52;;;;;;;7.33;100.00;99353.38;5010417;28;20181;-43
2022/09/28 05:59:10;;;;;;;21.98;18.35;;;;;;;7.32;100.00;99350.78;5017816;28;20562;-41
2022/09/28 06:01:36;;;;;;;22.90;18.65;;;;;;;7.36;100.00;99355.03;5027926;28;20204;-42
2022/09/28 06:04:06;;;;;;;25.10;19.08;;;;;;;7.39;100.00;99352.19;5029989;28;20642;-45
2022/09/28 06:06:34;;;;;;;24.90;17.75;;;;;;;7.49;100.00;99360.63;5026298;28;20212;-43
2022/09/28 06:08:59;;;;;;;23.60;19.52;;;;;;;7.45;100.00;99361.72;5018812;28;20195;-45
2022/09/28 06:11:27;;;;;;;23.63;18.77;;;;;;;7.41;100.00;99359.22;5011586;28;20209;-47
2022/09/28 06:13:55;;;;;;;22.85;18.48;;;;;;;7.40;100.00;99356.59;5025430;28;20184;-47
2022/09/28 06:16:21;;;;;;;28.88;20.85;;;;;;;7.42;100.00;99360.91;5026019;28;20611;-43
2022/09/28 06:18:47;;;;;;;24.23;19.80;;;;;;;7.46;100.00;99360.78;5030906;28;20164;-42
2022/09/28 06:21:31;;;;;;;21.98;18.08;;;;;;;7.51;100.00;99356.09;5018616;28;20214;-42
2022/09/28 06:23:56;;;;;;;22.83;19.20;;;;;;;7.61;100.00;99366.22;5026626;28;20176;-45
2022/09/28 06:26:22;;;;;;;23.38;19.77;;;;;;;7.63;100.00;99355.47;5023495;28;20184;-45
2022/09/28 06:28:47;;;;;;;25.33;19.55;;;;;;;7.63;100.00;99361.69;5028535;28;20219;-45
2022/09/28 06:31:13;;;;;;;22.92;19.13;;;;;;;7.62;100.00;99356.41;5025979;28;20573;-43
2022/09/28 06:33:43;;;;;;;21.02;17.65;;;;;;;7.75;100.00;99362.00;5024021;28;20184;-43
2022/09/28 06:36:09;;;;;;;23.77;18.92;;;;;;;7.74;100.00;99358.47;5012555;28;20196;-43
2022/09/28 06:38:34;;;;;;;22.50;18.00;;;;;;;7.71;100.00;99353.28;5020705;28;20204;-45
2022/09/28 06:41:01;;;;;;;24.20;19.13;;;;;;;7.72;100.00;99370.13;5018642;28;20710;-44
2022/09/28 06:43:28;;;;;;;26.63;19.52;;;;;;;7.73;100.00;99370.06;5013917;28;20192;-43
2022/09/28 06:46:12;;;;;;;23.63;18.70;;;;;;;7.72;100.00;99367.47;5011591;28;20675;-43
2022/09/28 06:48:38;;;;;;;28.55;19.83;;;;;;;7.75;100.00;99373.53;5014035;28;20214;-45
2022/09/28 06:51:06;;;;;;;26.10;20.17;;;;;;;7.62;100.00;99373.25;5032274;28;20191;-44
2022/09/28 06:53:38;;;;;;;26.73;20.55;;;;;;;7.72;100.00;99384.34;5021024;28;20195;-44
2022/09/28 06:56:10;;;;;;;25.60;19.58;;;;;;;7.77;100.00;99390.31;5030584;28;20186;-45
2022/09/28 06:58:35;;;;;;;26.02;20.60;;;;;;;7.73;100.00;99380.72;5033780;28;20275;-45
2022/09/28 07:01:02;;;;;;;27.52;21.02;;;;;;;7.74;100.00;99392.25;5024974;28;20283;-44
2022/09/28 07:03:33;;;;;;;27.15;21.20;;;;;;;7.81;100.00;99388.34;5023565;28;20180;-46
2022/09/28 07:06:25;;;;;;;31.10;23.45;;;;;;;7.77;100.00;99403.63;5029092;28;20234;-45
2022/09/28 07:09:08;;;;;;;30.83;21.45;;;;;;;7.73;100.00;99401.19;5023999;28;20185;-44
2022/09/28 07:11:39;;;;;;;30.63;22.95;;;;;;;7.66;100.00;99405.97;5038290;28;20559;-45
2022/09/28 07:14:23;;;;;;;35.88;24.80;;;;;;;7.51;100.00;99399.59;5024948;28;20187;-46
2022/09/28 07:16:49;;;;;;;35.05;24.20;;;;;;;7.61;100.00;99406.19;5025225;28;20187;-44
2022/09/28 07:19:15;;;;;;;40.90;24.20;;;;;;;7.64;100.00;99408.69;5027980;28;20603;-44
2022/09/28 07:21:42;;;;;;;36.33;24.45;;;;;;;7.61;100.00;99408.00;5022850;28;20592;-45
2022/09/28 07:24:11;;;;;;;35.45;23.60;;;;;;;7.62;100.00;99413.25;5020587;28;20267;-43
2022/09/28 07:27:06;;;;;;;40.15;23.88;;;;;;;7.69;100.00;99426.28;5008783;28;20221;-42
2022/09/28 07:29:42;;;;;;;35.97;21.10;;;;;;;7.62;100.00;99421.25;5015749;28;20204;-45
2022/09/28 07:32:37;;;;;;;28.98;19.88;;;;;;;7.54;100.00;99420.78;4975408;28;20241;-46
2022/09/28 07:35:52;;;;;;;26.05;18.65;;;;;;;7.50;100.00;99440.50;5000035;28;20283;-44
2022/09/28 07:38:19;;;;;;;26.65;17.83;;;;;;;7.50;100.00;99437.84;5008933;28;20187;-45
2022/09/28 07:43:29;;;;;;;21.88;16.75;;;;;;;7.49;100.00;99435.25;5025848;28;20184;-44
2022/09/28 07:45:54;;;;;;;25.75;18.17;;;;;;;7.60;100.00;99438.25;5016141;28;20234;-41
2022/09/28 07:48:21;;;;;;;25.55;16.65;;;;;;;7.37;100.00;99442.88;5013932;28;20338;-44
2022/09/28 07:50:55;;;;;;;22.77;16.15;;;;;;;7.37;100.00;99445.56;5017571;28;20386;-44
2022/09/28 07:53:52;;;;;;;24.13;16.73;;;;;;;7.50;100.00;99436.97;5008459;28;20232;-44
2022/09/28 07:56:25;;;;;;;24.35;17.83;;;;;;;7.58;100.00;99442.78;5015057;28;20187;-43
2022/09/28 07:58:58;;;;;;;25.80;18.08;;;;;;;7.64;100.00;99450.50;5028385;28;20187;-44
2022/09/28 08:01:50;;;;;;;23.98;16.95;;;;;;;7.68;100.00;99446.75;5025835;28;20216;-48
2022/09/28 08:04:16;;;;;;;27.80;19.83;;;;;;;7.75;100.00;99444.66;5021202;28;20185;-46
2022/09/28 08:06:44;;;;;;;26.45;18.60;;;;;;;7.79;100.00;99449.75;5020433;28;20539;-47
2022/09/28 08:09:11;;;;;;;24.90;18.75;;;;;;;7.87;100.00;99454.72;5023790;28;20180;-49
2022/09/28 08:12:06;;;;;;;23.50;18.25;;;;;;;7.62;100.00;99449.69;4957222;28;20303;-49
2022/09/28 08:14:42;;;;;;;20.77;16.48;;;;;;;7.65;100.00;99454.88;5020641;28;20263;-48
2022/09/28 08:17:26;;;;;;;23.15;17.75;;;;;;;7.63;100.00;99448.75;5019380;28;20184;-48
2022/09/28 08:22:39;;;;;;;21.00;16.48;;;;;;;7.79;100.00;99463.09;5020904;28;20212;-47
2022/09/28 08:25:05;;;;;;;22.48;17.35;;;;;;;7.76;100.00;99457.91;5027953;28;20600;-47
2022/09/28 08:27:31;;;;;;;22.02;17.25;;;;;;;7.80;100.00;99456.78;5027564;28;20200;-49
2022/09/28 08:29:56;;;;;;;21.95;17.83;;;;;;;7.89;100.00;99455.47;5027848;28;20231;-50
2022/09/28 08:32:57;;;;;;;24.42;17.65;;;;;;;7.88;100.00;99463.56;4928214;29;20297;-44
2022/09/28 08:35:41;;;;;;;23.50;16.50;;;;;;;7.81;100.00;99463.00;5012965;28;20223;-45
2022/09/28 08:38:12;;;;;;;22.45;16.55;;;;;;;7.82;100.00;99462.91;5021689;28;20557;-48
2022/09/28 08:41:08;;;;;;;24.23;18.10;;;;;;;7.94;100.00;99463.28;5018546;28;20231;-47
2022/09/28 08:44:10;;;;;;;25.20;19.13;;;;;;;7.93;100.00;99453.53;5018288;28;20493;-46
2022/09/28 08:47:02;;;;;;;24.42;18.58;;;;;;;7.80;100.00;99458.59;5026195;28;20561;-47
2022/09/28 08:49:49;;;;;;;24.50;17.95;;;;;;;7.98;100.00;99465.72;5018132;28;20286;-47
2022/09/28 08:52:36;;;;;;;26.13;18.75;;;;;;;7.97;100.00;99463.97;5024011;28;20517;-47
2022/09/28 08:55:25;;;;;;;23.48;17.95;;;;;;;8.05;100.00;99463.59;5024513;28;20184;-49
2022/09/28 08:58:03;;;;;;;21.98;18.02;;;;;;;8.16;100.00;99471.94;5001905;28;20285;-48
2022/09/28 09:00:38;;;;;;;25.23;18.30;;;;;;;8.08;100.00;99466.09;4999007;28;20253;-48
2022/09/28 09:03:10;;;;;;;24.95;17.90;;;;;;;8.18;100.00;99471.88;5006036;28;20223;-47
2022/09/28 09:05:48;;;;;;;24.45;18.10;;;;;;;8.29;100.00;99465.97;4995825;28;20262;-49
2022/09/28 09:08:25;;;;;;;24.70;18.33;;;;;;;8.24;100.00;99466.19;5008143;28;20249;-48
2022/09/28 09:10:57;;;;;;;22.65;16.52;;;;;;;8.38;100.00;99465.50;5009185;28;20223;-48
2022/09/28 09:13:45;;;;;;;19.80;16.17;;;;;;;8.51;100.00;99474.66;5023959;28;20640;-47
2022/09/28 09:16:34;;;;;;;20.88;15.80;;;;;;;8.70;100.00;99479.03;5010802;28;20223;-48
2022/09/28 09:19:26;;;;;;;20.73;15.35;;;;;;;8.85;100.00;99470.19;4997802;28;20302;-46
2022/09/28 09:22:13;;;;;;;19.58;14.52;;;;;;;8.79;100.00;99467.84;5009868;28;21037;-48
2022/09/28 09:24:54;;;;;;;18.08;15.02;;;;;;;8.81;100.00;99479.31;5011725;28;20211;-46
2022/09/28 09:27:19;;;;;;;16.35;13.52;;;;;;;8.75;100.00;99479.66;5014209;28;20450;-49
2022/09/28 09:30:02;;;;;;;18.25;13.20;;;;;;;9.06;100.00;99474.41;5026552;28;20787;-46
2022/09/28 09:32:40;;;;;;;13.13;11.80;;;;;;;9.07;100.00;99467.25;5019272;28;20188;-44
2022/09/28 09:35:39;;;;;;;14.80;11.93;;;;;;;9.02;100.00;99472.84;5024923;28;20218;-44
2022/09/28 09:38:39;;;;;;;11.77;10.00;;;;;;;9.28;100.00;99478.59;5020859;28;20187;-46
2022/09/28 09:41:56;;;;;;;21.02;16.88;;;;;;;9.19;100.00;99479.09;5014437;28;20247;-47
2022/09/28 09:44:59;;;;;;;20.45;17.45;;;;;;;9.31;100.00;99482.91;5024805;28;20704;-46
2022/09/28 09:48:01;;;;;;;19.42;15.68;;;;;;;9.15;100.00;99475.72;4954510;28;20207;-46
2022/09/28 09:50:53;;;;;;;15.30;13.57;;;;;;;9.31;100.00;99470.38;5019299;28;20740;-49
2022/09/28 09:53:58;;;;;;;19.67;16.15;;;;;;;9.19;100.00;99479.94;5024363;28;20192;-48
2022/09/28 09:56:37;;;;;;;17.27;14.25;;;;;;;9.18;100.00;99477.34;5006220;28;20697;-47
2022/09/28 09:59:32;;;;;;;18.35;15.95;;;;;;;9.22;100.00;99484.25;5000787;28;20196;-49
2022/09/28 10:02:24;;;;;;;16.15;14.13;;;;;;;9.12;100.00;99485.69;5018445;28;20291;-48
2022/09/28 10:05:13;;;;;;;19.00;15.18;;;;;;;9.27;100.00;99479.53;5004973;28;20212;-47
2022/09/28 10:07:52;;;;;;;20.98;14.60;;;;;;;9.35;100.00;99487.13;5004949;28;20868;-49
2022/09/28 10:10:27;;;;;;;14.77;13.27;;;;;;;9.37;100.00;99478.06;5012542;28;20224;-48
2022/09/28 10:12:59;;;;;;;20.05;15.15;;;;;;;9.32;100.00;99476.63;5013848;28;20192;-47
2022/09/28 10:15:28;;;;;;;17.80;15.30;;;;;;;9.14;100.00;99481.13;5012397;28;20215;-46
2022/09/28 10:18:11;;;;;;;19.50;15.88;;;;;;;9.27;100.00;99483.09;5014893;28;20187;-48
2022/09/28 10:20:55;;;;;;;19.65;16.80;;;;;;;9.12;100.00;99489.25;5020293;28;20640;-46
2022/09/28 10:23:42;;;;;;;20.80;17.10;;;;;;;9.22;100.00;99484.25;5019174;28;20735;-45
2022/09/28 10:26:36;;;;;;;20.75;17.17;;;;;;;9.19;100.00;99477.28;5017889;28;20230;-46
2022/09/28 10:29:11;;;;;;;19.85;16.42;;;;;;;9.06;100.00;99486.91;5016803;28;20561;-48
2022/09/28 10:31:48;;;;;;;22.63;16.52;;;;;;;9.16;100.00;99484.59;5016699;28;20180;-46
2022/09/28 10:34:29;;;;;;;19.17;15.70;;;;;;;9.28;100.00;99486.59;5013590;28;20270;-48
2022/09/28 10:37:02;;;;;;;19.38;15.45;;;;;;;9.38;100.00;99489.63;5028220;28;20184;-48
2022/09/28 10:39:54;;;;;;;18.80;16.23;;;;;;;9.36;100.00;99488.84;5014131;28;20211;-48
2022/09/28 10:42:30;;;;;;;17.77;15.32;;;;;;;9.48;100.00;99496.19;5011795;28;20204;-48
2022/09/28 10:45:18;;;;;;;17.25;15.43;;;;;;;9.54;100.00;99481.66;5019563;28;20295;-46
2022/09/28 10:47:44;;;;;;;19.55;16.77;;;;;;;9.51;100.00;99488.03;5020883;28;20666;-46
2022/09/28 10:50:24;;;;;;;21.58;17.50;;;;;;;9.51;100.00;99493.38;5021244;28;20216;-46
2022/09/28 10:53:31;;;;;;;17.73;15.82;;;;;;;9.59;100.00;99485.78;5016268;28;20742;-44
2022/09/28 10:56:21;;;;;;;19.05;16.98;;;;;;;9.59;100.00;99488.44;4996213;28;20618;-47
2022/09/28 10:58:52;;;;;;;22.55;17.15;;;;;;;9.81;100.00;99504.16;5018650;28;20295;-48
2022/09/28 11:01:31;;;;;;;20.67;17.25;;;;;;;9.70;100.00;99495.88;5020125;28;20204;-47
2022/09/28 11:04:03;;;;;;;21.05;16.95;;;;;;;9.71;100.00;99497.63;5024276;28;21168;-46
2022/09/28 11:06:31;;;;;;;18.63;16.00;;;;;;;9.66;100.00;99495.19;5021909;28;20195;-48
2022/09/28 11:09:00;;;;;;;20.58;16.08;;;;;;;9.69;100.00;99491.50;5023045;28;20195;-47
2022/09/28 11:11:28;;;;;;;16.00;14.30;;;;;;;9.92;100.00;99505.38;5013393;28;20207;-47
2022/09/28 11:14:02;;;;;;;18.00;15.23;;;;;;;9.93;100.00;99504.41;5024033;28;20202;-48
2022/09/28 11:16:34;;;;;;;16.08;14.38;;;;;;;9.92;100.00;99500.00;5024318;28;20181;-47
2022/09/28 11:19:28;;;;;;;16.17;14.40;;;;;;;10.05;100.00;99509.06;5026820;28;20593;-47
2022/09/28 11:21:54;;;;;;;16.27;14.13;;;;;;;10.31;100.00;99519.16;5009894;28;20228;-47
2022/09/28 11:24:25;;;;;;;17.85;15.15;;;;;;;10.14;100.00;99513.03;5020307;28;20191;-46
2022/09/28 11:26:55;;;;;;;14.95;13.35;;;;;;;10.11;100.00;99508.72;5016832;28;20242;-46
2022/09/28 11:29:35;;;;;;;18.13;13.95;;;;;;;10.09;100.00;99511.47;5016575;28;20320;-48
2022/09/28 11:32:20;;;;;;;14.77;13.15;;;;;;;10.27;100.00;99503.34;5019233;28;20231;-47
2022/09/28 11:35:05;;;;;;;14.13;11.77;;;;;;;10.51;100.00;99509.09;5013081;28;20196;-46
2022/09/28 11:37:41;;;;;;;13.43;11.68;;;;;;;10.47;100.00;99515.56;5032777;28;20204;-47
2022/09/28 11:40:45;;;;;;;11.80;10.57;;;;;;;10.48;100.00;99509.28;5029663;28;20266;-48
2022/09/28 11:43:48;;;;;;;12.25;11.05;;;;;;;10.38;100.00;99514.31;5035014;28;20196;-47
2022/09/28 11:46:38;;;;;;;12.20;10.90;;;;;;;10.34;100.00;99509.22;5019841;28;20176;-48
2022/09/28 11:49:33;;;;;;;12.27;10.95;;;;;;;10.58;100.00;99521.16;5022755;28;20679;-47
2022/09/28 11:52:07;;;;;;;12.00;10.88;;;;;;;10.40;100.00;99531.13;5020113;28;20526;-47
2022/09/28 11:54:47;;;;;;;11.27;10.18;;;;;;;10.36;100.00;99524.22;5018109;28;20280;-48
2022/09/28 11:57:24;;;;;;;12.02;10.82;;;;;;;10.46;100.00;99517.41;5018653;28;20191;-49
2022/09/28 12:00:03;;;;;;;12.98;9.98;;;;;;;10.40;100.00;99520.44;5025566;28;20566;-46